createdAt,value
2019-05-01T00:02:03.264Z,77.87
2019-05-01T00:04:34.343Z,77.80
2019-05-01T00:07:05.355Z,77.61
2019-05-01T00:09:35.178Z,77.95
2019-05-01T00:12:04.518Z,78.09
2019-05-01T00:14:35.675Z,77.79
2019-05-01T00:17:05.081Z,77.82
2019-05-01T00:19:34.478Z,77.99
2019-05-01T00:22:03.817Z,77.88
2019-05-01T00:24:33.442Z,77.95
2019-05-01T00:27:02.876Z,78.01
2019-05-01T00:29:32.308Z,78.13
2019-05-01T00:32:01.641Z,78.14
2019-05-01T00:34:30.969Z,78.49
2019-05-01T00:37:00.300Z,78.63
2019-05-01T00:39:29.677Z,78.92
2019-05-01T00:41:59.000Z,79.41
2019-05-01T00:44:28.359Z,79.65
2019-05-01T00:46:58.075Z,79.61
2019-05-01T00:49:27.403Z,79.61
2019-05-01T00:51:56.737Z,79.55
2019-05-01T00:54:26.617Z,79.54
2019-05-01T00:57:00.224Z,79.71
2019-05-01T00:59:31.257Z,79.69
2019-05-01T01:02:02.541Z,80.03
2019-05-01T01:04:32.195Z,80.17
2019-05-01T01:07:01.537Z,80.15
2019-05-01T01:09:31.185Z,80.16
2019-05-01T01:12:00.546Z,80.42
2019-05-01T01:14:30.201Z,80.51
2019-05-01T01:16:59.530Z,80.48
2019-05-01T01:19:28.867Z,80.56
2019-05-01T01:21:58.197Z,80.54
2019-05-01T01:24:28.565Z,80.71
2019-05-01T01:26:58.348Z,80.98
2019-05-01T01:29:27.679Z,81.17
2019-05-01T01:31:57.055Z,81.74
2019-05-01T01:34:26.455Z,81.36
2019-05-01T01:36:55.776Z,80.93
2019-05-01T01:39:25.107Z,80.65
2019-05-01T01:41:55.178Z,80.41
2019-05-01T01:44:26.289Z,80.43
2019-05-01T01:46:59.836Z,80.61
2019-05-01T01:49:29.407Z,80.64
2019-05-01T01:51:58.906Z,80.63
2019-05-01T01:54:28.778Z,80.50
2019-05-01T01:56:58.380Z,80.79
2019-05-01T01:59:27.986Z,81.08
2019-05-01T02:02:07.774Z,81.04
2019-05-01T02:04:41.453Z,80.98
2019-05-01T02:07:10.031Z,80.87
2019-05-01T02:09:39.309Z,81.08
2019-05-01T02:12:08.782Z,81.03
2019-05-01T02:14:38.123Z,81.23
2019-05-01T02:17:07.519Z,81.14
2019-05-01T02:19:36.852Z,81.13
2019-05-01T02:22:06.531Z,81.24
2019-05-01T02:24:35.871Z,81.34
2019-05-01T02:27:10.045Z,81.35
2019-05-01T02:29:43.430Z,81.54
2019-05-01T02:32:13.630Z,81.46
2019-05-01T02:34:44.010Z,81.70
2019-05-01T02:37:15.585Z,82.04
2019-05-01T02:39:46.914Z,82.22
2019-05-01T02:42:18.320Z,81.99
2019-05-01T02:44:52.632Z,82.06
2019-05-01T02:47:25.019Z,82.06
2019-05-01T02:50:02.913Z,82.40
2019-05-01T02:52:35.292Z,82.13
2019-05-01T02:55:07.502Z,82.22
2019-05-01T02:57:39.213Z,82.40
2019-05-01T03:00:08.887Z,82.57
2019-05-01T03:02:39.425Z,82.73
2019-05-01T03:05:09.202Z,82.69
2019-05-01T03:07:39.397Z,83.65
2019-05-01T03:10:10.049Z,84.15
2019-05-01T03:12:42.517Z,83.97
2019-05-01T03:15:13.570Z,83.77
2019-05-01T03:17:55.200Z,83.57
2019-05-01T03:20:32.341Z,83.61
2019-05-01T03:23:13.340Z,83.57
2019-05-01T03:25:43.392Z,83.67
2019-05-01T03:28:13.367Z,84.03
2019-05-01T03:30:42.848Z,84.15
2019-05-01T03:33:12.551Z,84.36
2019-05-01T03:35:41.966Z,84.46
2019-05-01T03:38:11.762Z,84.52
2019-05-01T03:40:42.320Z,84.57
2019-05-01T03:43:12.858Z,84.40
2019-05-01T03:45:43.157Z,84.01
2019-05-01T03:48:12.947Z,83.86
2019-05-01T03:50:46.223Z,83.89
2019-05-01T03:53:13.730Z,84.17
2019-05-01T03:55:43.071Z,83.87
2019-05-01T03:58:12.406Z,84.08
2019-05-01T04:00:46.339Z,84.02
2019-05-01T04:03:32.676Z,83.71
2019-05-01T04:06:02.500Z,83.77
2019-05-01T04:08:32.764Z,83.76
2019-05-01T04:11:03.907Z,83.79
2019-05-01T04:13:34.064Z,83.43
2019-05-01T04:16:04.437Z,83.66
2019-05-01T04:18:34.538Z,83.98
2019-05-01T04:21:04.107Z,84.20
2019-05-01T04:23:33.501Z,84.20
2019-05-01T04:26:02.902Z,84.14
2019-05-01T04:28:36.602Z,83.48
2019-05-01T04:31:23.282Z,83.32
2019-05-01T04:33:57.421Z,83.22
2019-05-01T04:36:40.367Z,83.29
2019-05-01T04:39:09.677Z,83.67
2019-05-01T04:41:39.014Z,83.86
2019-05-01T04:44:08.829Z,84.04
2019-05-01T04:46:38.485Z,84.40
2019-05-01T04:49:08.214Z,84.54
2019-05-01T04:51:37.781Z,84.64
2019-05-01T04:54:08.248Z,84.64
2019-05-01T04:56:37.585Z,84.61
2019-05-01T04:59:07.482Z,84.61
2019-05-01T05:01:56.786Z,84.45
2019-05-01T05:04:26.725Z,84.55
2019-05-01T05:06:56.422Z,84.84
2019-05-01T05:09:40.000Z,84.49
2019-05-01T05:12:11.107Z,84.64
2019-05-01T05:14:51.287Z,84.57
2019-05-01T05:17:24.067Z,84.31
2019-05-01T05:19:53.660Z,84.57
2019-05-01T05:22:24.299Z,84.24
2019-05-01T05:24:54.467Z,84.71
2019-05-01T05:27:25.073Z,84.86
2019-05-01T05:29:57.545Z,84.91
2019-05-01T05:32:28.883Z,84.91
2019-05-01T05:35:00.427Z,84.80
2019-05-01T05:37:36.331Z,84.75
2019-05-01T05:40:06.750Z,84.77
2019-05-01T05:42:36.967Z,84.92
2019-05-01T05:45:09.583Z,84.84
2019-05-01T05:47:38.996Z,84.82
2019-05-01T05:50:09.974Z,84.77
2019-05-01T05:52:42.109Z,84.66
2019-05-01T05:55:17.091Z,84.67
2019-05-01T05:57:59.194Z,84.82
2019-05-01T06:00:44.229Z,84.64
2019-05-01T06:03:35.175Z,84.98
2019-05-01T06:06:08.187Z,84.76
2019-05-01T06:08:40.578Z,85.18
2019-05-01T06:11:17.314Z,84.92
2019-05-01T06:14:05.174Z,85.16
2019-05-01T06:16:53.960Z,84.94
2019-05-01T06:19:27.459Z,85.13
2019-05-01T06:22:05.084Z,84.49
2019-05-01T06:24:35.728Z,84.35
2019-05-01T06:27:08.815Z,84.47
2019-05-01T06:29:37.561Z,84.05
2019-05-01T06:32:06.885Z,84.14
2019-05-01T06:34:36.293Z,84.08
2019-05-01T06:37:05.689Z,84.20
2019-05-01T06:39:35.370Z,84.17
2019-05-01T06:42:09.871Z,84.16
2019-05-01T06:44:44.341Z,83.79
2019-05-01T06:47:24.828Z,83.98
2019-05-01T06:50:12.011Z,83.48
2019-05-01T06:52:41.686Z,83.13
2019-05-01T06:55:12.433Z,83.37
2019-05-01T06:57:43.686Z,82.51
2019-05-01T07:00:15.643Z,82.70
2019-05-01T07:02:47.479Z,82.56
2019-05-01T07:05:17.255Z,82.38
2019-05-01T07:07:48.278Z,82.02
2019-05-01T07:10:29.768Z,82.01
2019-05-01T07:12:49.411Z,81.77
2019-05-01T07:15:21.881Z,81.61
2019-05-01T07:17:50.093Z,81.57
2019-05-01T07:20:25.590Z,81.39
2019-05-01T07:22:55.621Z,81.04
2019-05-01T07:25:25.016Z,81.29
2019-05-01T07:27:58.479Z,81.77
2019-05-01T07:30:27.406Z,81.29
2019-05-01T07:32:57.601Z,80.49
2019-05-01T07:35:27.255Z,80.39
2019-05-01T07:37:57.641Z,80.52
2019-05-01T07:40:30.032Z,80.69
2019-05-01T07:42:59.871Z,80.19
2019-05-01T07:45:33.686Z,80.18
2019-05-01T07:48:05.616Z,80.13
2019-05-01T07:50:34.926Z,79.92
2019-05-01T07:53:04.420Z,79.91
2019-05-01T07:55:36.733Z,79.94
2019-05-01T07:58:15.903Z,79.65
2019-05-01T08:00:55.117Z,80.12
2019-05-01T08:03:24.438Z,80.19
2019-05-01T08:05:54.003Z,80.30
2019-05-01T08:08:23.563Z,79.28
2019-05-01T08:10:52.960Z,79.05
2019-05-01T08:13:22.288Z,78.70
2019-05-01T08:15:51.623Z,78.37
2019-05-01T08:18:29.309Z,78.27
2019-05-01T08:21:12.087Z,78.29
2019-05-01T08:23:42.635Z,78.28
2019-05-01T08:26:12.480Z,78.30
2019-05-01T08:28:55.441Z,78.19
2019-05-01T08:31:42.657Z,78.07
2019-05-01T08:34:26.608Z,78.14
2019-05-01T08:36:55.318Z,77.58
2019-05-01T08:39:24.764Z,77.39
2019-05-01T08:41:54.089Z,77.32
2019-05-01T08:44:29.571Z,77.39
2019-05-01T08:47:09.859Z,77.56
2019-05-01T08:49:56.793Z,77.48
2019-05-01T08:52:26.198Z,77.36
2019-05-01T08:54:55.523Z,77.48
2019-05-01T08:57:29.039Z,78.32
2019-05-01T09:00:00.342Z,77.79
2019-05-01T09:02:26.960Z,77.52
2019-05-01T09:05:02.621Z,77.97
2019-05-01T09:07:27.608Z,77.38
2019-05-01T09:09:56.904Z,76.92
2019-05-01T09:12:26.234Z,77.12
2019-05-01T09:14:55.567Z,77.28
2019-05-01T09:17:24.896Z,76.07
2019-05-01T09:19:54.237Z,75.88
2019-05-01T09:22:23.565Z,76.15
2019-05-01T09:24:52.964Z,76.29
2019-05-01T09:27:31.125Z,76.08
2019-05-01T09:30:07.877Z,75.51
2019-05-01T09:32:37.210Z,74.78
2019-05-01T09:35:15.463Z,74.32
2019-05-01T09:37:38.173Z,74.23
2019-05-01T09:40:09.517Z,73.78
2019-05-01T09:42:40.063Z,73.59
2019-05-01T09:45:09.642Z,73.55
2019-05-01T09:47:38.970Z,73.19
2019-05-01T09:50:08.551Z,72.70
2019-05-01T09:52:59.708Z,73.20
2019-05-01T09:55:49.100Z,73.54
2019-05-01T09:58:19.412Z,73.40
2019-05-01T10:00:52.722Z,72.98
2019-05-01T10:03:20.482Z,72.69
2019-05-01T10:05:49.820Z,72.40
2019-05-01T10:08:19.474Z,72.38
2019-05-01T10:10:48.810Z,72.34
2019-05-01T10:13:22.556Z,72.07
2019-05-01T10:15:49.205Z,72.18
2019-05-01T10:18:19.582Z,71.45
2019-05-01T10:20:48.924Z,70.89
2019-05-01T10:23:18.250Z,70.94
2019-05-01T10:25:54.930Z,70.44
2019-05-01T10:28:34.800Z,69.63
2019-05-01T10:31:07.021Z,69.62
2019-05-01T10:33:41.132Z,69.88
2019-05-01T10:36:18.800Z,69.66
2019-05-01T10:38:46.750Z,69.41
2019-05-01T10:41:15.797Z,69.12
2019-05-01T10:43:45.127Z,68.70
2019-05-01T10:46:14.457Z,69.39
2019-05-01T10:48:43.793Z,69.22
2019-05-01T10:51:14.114Z,68.88
2019-05-01T10:53:43.443Z,68.81
2019-05-01T10:56:12.815Z,68.88
2019-05-01T10:58:42.147Z,68.70
2019-05-01T11:01:19.105Z,68.13
2019-05-01T11:03:48.682Z,67.15
2019-05-01T11:06:18.012Z,67.22
2019-05-01T11:08:47.347Z,67.75
2019-05-01T11:11:16.919Z,68.70
2019-05-01T11:13:46.252Z,67.44
2019-05-01T11:16:15.656Z,67.67
2019-05-01T11:18:44.994Z,67.77
2019-05-01T11:21:14.562Z,67.55
2019-05-01T11:23:43.896Z,68.31
2019-05-01T11:26:13.456Z,67.31
2019-05-01T11:28:42.790Z,68.48
2019-05-01T11:31:13.999Z,67.77
2019-05-01T11:33:44.971Z,68.44
2019-05-01T11:36:22.809Z,66.81
2019-05-01T11:39:03.136Z,66.93
2019-05-01T11:41:51.228Z,67.42
2019-05-01T11:44:20.568Z,66.99
2019-05-01T11:46:50.210Z,66.77
2019-05-01T11:49:19.544Z,67.26
2019-05-01T11:51:48.888Z,66.34
2019-05-01T11:54:18.207Z,66.28
2019-05-01T11:56:47.548Z,66.76
2019-05-01T11:59:16.877Z,65.68
2019-05-01T12:01:46.220Z,65.56
2019-05-01T12:04:15.548Z,67.36
2019-05-01T12:06:44.892Z,65.82
2019-05-01T12:09:14.229Z,65.33
2019-05-01T12:11:46.374Z,66.42
2019-05-01T12:14:15.707Z,64.83
2019-05-01T12:16:52.101Z,65.29
2019-05-01T12:19:23.433Z,64.94
2019-05-01T12:21:53.114Z,65.79
2019-05-01T12:24:23.534Z,64.42
2019-05-01T12:26:52.874Z,64.46
2019-05-01T12:29:22.209Z,65.17
2019-05-01T12:31:51.563Z,64.77
2019-05-01T12:34:20.915Z,64.79
2019-05-01T12:36:51.887Z,63.92
2019-05-01T12:39:21.241Z,63.94
2019-05-01T12:41:54.935Z,63.63
2019-05-01T12:44:23.541Z,63.15
2019-05-01T12:47:09.115Z,62.72
2019-05-01T12:49:39.415Z,62.92
2019-05-01T12:52:15.851Z,62.54
2019-05-01T12:54:47.044Z,63.30
2019-05-01T12:57:18.258Z,63.06
2019-05-01T12:59:47.594Z,63.76
2019-05-01T13:02:18.132Z,63.99
2019-05-01T13:04:47.467Z,64.86
2019-05-01T13:07:17.391Z,63.31
2019-05-01T13:09:46.954Z,63.13
2019-05-01T13:12:16.292Z,62.73
2019-05-01T13:14:45.831Z,61.22
2019-05-01T13:17:15.413Z,61.36
2019-05-01T13:19:44.983Z,60.66
2019-05-01T13:22:14.555Z,58.43
2019-05-01T13:24:50.061Z,57.29
2019-05-01T13:27:27.277Z,57.74
2019-05-01T13:29:58.246Z,56.04
2019-05-01T13:32:45.457Z,56.50
2019-05-01T13:35:15.529Z,54.97
2019-05-01T13:37:44.877Z,52.70
2019-05-01T13:40:15.219Z,52.07
2019-05-01T13:42:45.766Z,52.22
2019-05-01T13:45:15.670Z,50.61
2019-05-01T13:47:45.028Z,49.81
2019-05-01T13:50:14.598Z,50.09
2019-05-01T13:52:43.933Z,50.28
2019-05-01T13:55:13.509Z,49.44
2019-05-01T13:57:43.074Z,47.89
2019-05-01T14:00:12.943Z,47.60
2019-05-01T14:02:43.892Z,46.07
2019-05-01T14:05:13.683Z,46.26
2019-05-01T14:07:43.015Z,43.82
2019-05-01T14:10:13.926Z,43.98
2019-05-01T14:12:43.261Z,43.18
2019-05-01T14:15:13.172Z,43.70
2019-05-01T14:17:42.505Z,43.33
2019-05-01T14:20:20.397Z,42.83
2019-05-01T14:22:51.371Z,42.00
2019-05-01T14:25:20.715Z,41.46
2019-05-01T14:27:50.045Z,41.42
2019-05-01T14:30:19.453Z,41.41
2019-05-01T14:32:51.525Z,42.69
2019-05-01T14:35:20.174Z,43.75
2019-05-01T14:37:49.510Z,43.32
2019-05-01T14:40:19.117Z,43.46
2019-05-01T14:42:48.457Z,44.84
2019-05-01T14:45:18.152Z,44.61
2019-05-01T14:47:47.489Z,44.63
2019-05-01T14:50:16.971Z,44.86
2019-05-01T14:52:46.312Z,45.33
2019-05-01T14:55:15.740Z,45.54
2019-05-01T14:57:45.079Z,45.49
2019-05-01T15:00:15.635Z,44.94
2019-05-01T15:02:44.972Z,44.98
2019-05-01T15:05:14.374Z,44.80
2019-05-01T15:07:44.299Z,46.45
2019-05-01T15:10:13.877Z,46.54
2019-05-01T15:12:45.101Z,45.32
2019-05-01T15:15:32.294Z,45.51
2019-05-01T15:18:19.164Z,45.17
2019-05-01T15:20:48.506Z,44.78
2019-05-01T15:23:17.841Z,44.86
2019-05-01T15:25:47.199Z,44.95
2019-05-01T15:28:16.523Z,46.95
2019-05-01T15:30:45.870Z,46.15
2019-05-01T15:33:15.209Z,47.10
2019-05-01T15:35:44.550Z,44.99
2019-05-01T15:38:13.899Z,44.29
2019-05-01T15:40:50.652Z,44.80
2019-05-01T15:43:27.435Z,45.40
2019-05-01T15:45:56.765Z,44.57
2019-05-01T15:48:26.103Z,45.18
2019-05-01T15:50:55.436Z,45.21
2019-05-01T15:53:24.778Z,45.71
2019-05-01T15:55:54.160Z,45.14
2019-05-01T15:58:23.517Z,45.53
2019-05-01T16:00:52.943Z,45.85
2019-05-01T16:03:22.281Z,46.88
2019-05-01T16:05:51.855Z,47.43
2019-05-01T16:08:21.489Z,47.32
2019-05-01T16:10:55.394Z,47.40
2019-05-01T16:13:24.724Z,47.66
2019-05-01T16:15:54.065Z,47.91
2019-05-01T16:18:23.439Z,47.49
2019-05-01T16:20:52.770Z,47.62
2019-05-01T16:23:22.109Z,47.93
2019-05-01T16:25:51.672Z,48.37
2019-05-01T16:28:21.021Z,48.44
2019-05-01T16:30:50.351Z,48.64
2019-05-01T16:33:19.928Z,47.99
2019-05-01T16:35:49.258Z,48.50
2019-05-01T16:38:23.502Z,47.73
2019-05-01T16:40:59.836Z,48.25
2019-05-01T16:43:29.185Z,48.57
2019-05-01T16:45:59.700Z,49.39
2019-05-01T16:48:29.046Z,50.79
2019-05-01T16:50:58.386Z,49.71
2019-05-01T16:53:27.766Z,49.85
2019-05-01T16:55:57.167Z,50.10
2019-05-01T16:58:26.738Z,50.60
2019-05-01T17:00:59.821Z,51.16
2019-05-01T17:03:32.267Z,52.31
2019-05-01T17:06:09.858Z,52.16
2019-05-01T17:08:56.814Z,49.95
2019-05-01T17:11:30.911Z,51.04
2019-05-01T17:14:00.547Z,51.53
2019-05-01T17:16:30.184Z,51.10
2019-05-01T17:18:59.754Z,51.64
2019-05-01T17:21:29.315Z,50.81
2019-05-01T17:23:58.720Z,50.34
2019-05-01T17:26:28.289Z,51.91
2019-05-01T17:28:57.694Z,52.04
2019-05-01T17:31:28.422Z,53.69
2019-05-01T17:33:57.981Z,55.60
2019-05-01T17:36:27.325Z,56.63
2019-05-01T17:38:56.660Z,57.38
2019-05-01T17:41:27.253Z,58.14
2019-05-01T17:43:57.039Z,58.36
2019-05-01T17:46:26.621Z,58.20
2019-05-01T17:48:55.950Z,59.11
2019-05-01T17:51:25.293Z,58.96
2019-05-01T17:53:54.634Z,59.22
2019-05-01T17:56:28.422Z,59.99
2019-05-01T17:58:55.018Z,60.99
2019-05-01T18:01:42.008Z,61.29
2019-05-01T18:04:21.748Z,62.04
2019-05-01T18:06:51.969Z,62.69
2019-05-01T18:09:21.545Z,63.23
2019-05-01T18:11:52.308Z,63.60
2019-05-01T18:14:22.166Z,63.86
2019-05-01T18:16:51.728Z,64.63
2019-05-01T18:19:21.056Z,65.43
2019-05-01T18:21:53.560Z,65.47
2019-05-01T18:24:33.472Z,65.59
2019-05-01T18:27:07.098Z,66.31
2019-05-01T18:29:46.094Z,66.55
2019-05-01T18:32:17.078Z,66.94
2019-05-01T18:34:46.462Z,66.97
2019-05-01T18:37:17.435Z,67.17
2019-05-01T18:39:47.837Z,67.26
2019-05-01T18:42:17.543Z,67.76
2019-05-01T18:44:47.854Z,67.75
2019-05-01T18:47:18.401Z,67.69
2019-05-01T18:49:47.846Z,68.12
2019-05-01T18:52:18.333Z,68.26
2019-05-01T18:54:47.662Z,68.98
2019-05-01T18:57:17.070Z,69.03
2019-05-01T18:59:46.653Z,69.16
2019-05-01T19:02:20.624Z,69.52
2019-05-01T19:04:47.110Z,69.89
2019-05-01T19:07:16.701Z,70.27
2019-05-01T19:09:46.097Z,70.82
2019-05-01T19:12:15.864Z,70.91
2019-05-01T19:14:45.493Z,71.25
2019-05-01T19:17:15.010Z,71.59
2019-05-01T19:19:44.338Z,71.92
2019-05-01T19:22:13.921Z,72.00
2019-05-01T19:24:43.332Z,72.40
2019-05-01T19:27:14.219Z,72.87
2019-05-01T19:29:43.821Z,73.02
2019-05-01T19:32:13.161Z,73.57
2019-05-01T19:34:42.537Z,73.58
2019-05-01T19:37:16.030Z,73.71
2019-05-01T19:39:44.180Z,73.87
2019-05-01T19:42:14.409Z,74.01
2019-05-01T19:44:43.810Z,73.92
2019-05-01T19:47:14.134Z,71.22
2019-05-01T19:49:43.765Z,67.77
2019-05-01T19:52:13.468Z,65.41
2019-05-01T19:54:42.809Z,64.77
2019-05-01T19:57:12.154Z,64.19
2019-05-01T19:59:41.844Z,64.19
2019-05-01T20:02:12.613Z,63.73
2019-05-01T20:04:45.264Z,63.60
2019-05-01T20:07:15.821Z,63.94
2019-05-01T20:09:56.427Z,64.21
2019-05-01T20:12:16.799Z,63.67
2019-05-01T20:14:46.144Z,63.58
2019-05-01T20:17:18.670Z,64.06
2019-05-01T20:19:48.003Z,63.57
2019-05-01T20:22:17.562Z,64.75
2019-05-01T20:24:47.122Z,65.30
2019-05-01T20:27:16.689Z,65.07
2019-05-01T20:29:46.040Z,65.88
2019-05-01T20:32:15.607Z,65.22
2019-05-01T20:34:48.121Z,65.03
2019-05-01T20:37:15.973Z,65.29
2019-05-01T20:39:45.323Z,64.92
2019-05-01T20:42:15.728Z,64.73
2019-05-01T20:44:45.084Z,64.74
2019-05-01T20:47:14.480Z,65.18
2019-05-01T20:49:43.813Z,65.57
2019-05-01T20:52:14.119Z,65.28
2019-05-01T20:54:43.450Z,65.23
2019-05-01T20:57:20.885Z,65.52
2019-05-01T20:59:48.178Z,65.74
2019-05-01T21:02:16.998Z,65.80
2019-05-01T21:05:04.207Z,66.18
2019-05-01T21:07:35.854Z,66.22
2019-05-01T21:10:06.841Z,67.14
2019-05-01T21:12:36.173Z,67.09
2019-05-01T21:15:08.522Z,67.16
2019-05-01T21:17:38.067Z,67.49
2019-05-01T21:20:07.867Z,67.46
2019-05-01T21:22:37.446Z,67.91
2019-05-01T21:25:07.048Z,67.92
2019-05-01T21:27:36.771Z,68.34
2019-05-01T21:30:09.372Z,68.34
2019-05-01T21:32:38.708Z,69.04
2019-05-01T21:35:08.280Z,68.99
2019-05-01T21:37:38.589Z,69.12
2019-05-01T21:40:08.257Z,69.65
2019-05-01T21:42:37.901Z,70.75
2019-05-01T21:45:07.772Z,71.10
2019-05-01T21:47:37.422Z,71.45
2019-05-01T21:50:06.901Z,72.05
2019-05-01T21:52:36.533Z,72.69
2019-05-01T21:55:06.602Z,72.82
2019-05-01T21:57:40.103Z,73.57
2019-05-01T22:00:09.197Z,73.99
2019-05-01T22:02:41.680Z,74.59
2019-05-01T22:05:11.518Z,74.61
2019-05-01T22:07:40.853Z,74.89
2019-05-01T22:10:11.705Z,75.20
2019-05-01T22:12:43.850Z,75.46
2019-05-01T22:15:16.768Z,75.85
2019-05-01T22:18:03.061Z,76.00
2019-05-01T22:20:52.530Z,76.01
2019-05-01T22:23:29.913Z,76.23
2019-05-01T22:26:00.673Z,76.39
2019-05-01T22:28:37.584Z,76.87
2019-05-01T22:31:21.716Z,77.23
2019-05-01T22:33:50.445Z,77.75
2019-05-01T22:36:19.777Z,77.68
2019-05-01T22:38:49.188Z,77.50
2019-05-01T22:41:18.580Z,77.35
2019-05-01T22:43:47.997Z,77.21
2019-05-01T22:46:18.973Z,77.52
2019-05-01T22:48:48.309Z,77.86
2019-05-01T22:51:19.299Z,77.88
2019-05-01T22:53:50.276Z,78.01
2019-05-01T22:56:19.615Z,78.45
2019-05-01T22:58:48.953Z,78.96
2019-05-01T23:01:19.328Z,79.19
2019-05-01T23:03:56.057Z,78.74
2019-05-01T23:06:25.394Z,78.62
2019-05-01T23:08:54.741Z,78.42
2019-05-01T23:11:26.072Z,78.02
2019-05-01T23:13:55.484Z,77.98
2019-05-01T23:16:28.717Z,77.81
2019-05-01T23:18:57.844Z,78.15
2019-05-01T23:21:27.409Z,77.99
2019-05-01T23:24:01.771Z,78.16
2019-05-01T23:26:27.783Z,77.67
2019-05-01T23:28:57.153Z,77.77
2019-05-01T23:31:26.634Z,77.57
2019-05-01T23:33:55.968Z,77.48
2019-05-01T23:36:25.304Z,77.39
2019-05-01T23:38:54.633Z,77.37
2019-05-01T23:41:44.641Z,77.43
2019-05-01T23:43:58.340Z,77.58
2019-05-01T23:46:26.104Z,77.34
2019-05-01T23:48:55.437Z,77.68
2019-05-01T23:51:28.478Z,78.06
2019-05-01T23:53:55.980Z,77.99
2019-05-01T23:56:25.666Z,78.09
2019-05-01T23:58:55.273Z,78.87
